< < Back
Terminal Aerodrome Forecast


Current Version              Previous Versions:   1  2  3  4  5  6  7  8  9  

Terminal Aerodrome Forecast

506
FTUS42 KTAE 251100
TAFABY
TAF
KABY 251120Z 2512/2612 00000KT P6SM SKC
     FM251400 33005KT P6SM SKC
     FM260000 00000KT P6SM SKC=

Latest METAR

141
SAUS70 KWBC 260900 RRD
MTRABY
METAR KABY 260853Z 00000KT 10SM CLR 11/09 A3001 RMK AO2 SLP159 T01110094
56009


USA.gov is the U.S. government's official web portal to all federal, state and local government web resources and services.